Flight Track Log - Related Links

Times and Time Zones

All times are in EDT time to prevent confusion due to time zone crossing. See the AAL1326 flight status page for this flight to view local times or setup timezone preferences in your user account.

Time Position Orientation Groundspeed Altitude Reporting Facility
EDT Latitude Longitude Course Direction KTS MPH feet Rate Location/Type
Sun 06:57:12 PM 41.9320 -87.9120 221° Southwest 192 221 2,100  Level FlightAware ADS-B
Sun 06:57:37 PM 41.9070 -87.9090 175° South 230 265 2,800 2,182 Climbing FlightAware ADS-B
Sun 06:58:07 PM 41.8720 -87.8960 165° South 263 303 4,100 1,964 Climbing FlightAware ADS-B
Sun 06:58:32 PM 41.8450 -87.8860 165° South 275 316 4,600 1,091 Climbing FlightAware ADS-B
Sun 06:59:02 PM 41.8070 -87.8710 164° South 279 321 5,100 2,182 Climbing FlightAware ADS-B
Sun 06:59:27 PM 41.7760 -87.8590 164° South 279 321 6,600 3,491 Climbing FlightAware ADS-B
Sun 06:59:57 PM 41.7380 -87.8450 165° South 286 329 8,300 3,200 Climbing FlightAware ADS-B
Sun 07:00:27 PM 41.6990 -87.8300 164° South 302 348 9,800 3,000 Climbing FlightAware ADS-B
Sun 07:01:07 PM 41.6420 -87.8090 165° South 317 365 11,800 2,475 Climbing FlightAware ADS-B
Sun 07:01:47 PM 41.5820 -87.7860 164° South 353 406 13,100 1,650 Climbing FlightAware ADS-B
Sun 07:02:27 PM 41.5130 -87.7600 164° South 398 458 14,000 1,976 Climbing FlightAware ADS-B
Sun 07:03:12 PM 41.4350 -87.7330 165° South 410 472 15,900 2,612 Climbing FlightAware ADS-B
Sun 07:03:52 PM 41.3610 -87.7250 175° South 412 474 17,700 2,541 Climbing FlightAware ADS-B
Sun 07:04:37 PM 41.2710 -87.7260 180° South 428 493 19,500 2,480 Climbing FlightAware ADS-B
Sun 07:05:07 PM 41.2110 -87.7260 180° South 431 496 20,800 2,250 Climbing FlightAware ADS-B
Sun 07:05:57 PM 41.1110 -87.7150 175° South 449 517 22,500 1,768 Climbing FlightAware ADS-B
Sun 07:06:42 PM 41.0160 -87.7010 174° South 470 541 23,600 1,867 Climbing FlightAware ADS-B
Sun 07:07:27 PM 40.9150 -87.6880 174° South 473 544 25,300 1,765 Climbing FlightAware ADS-B
Sun 07:08:07 PM 40.8370 -87.6770 174° South 483 556 26,100 1,650 Climbing FlightAware ADS-B
Sun 07:08:47 PM 40.7380 -87.6390 164° South 497 572 27,500 1,906 Climbing FlightAware ADS-B
Sun 07:09:32 PM 40.6440 -87.5890 158° South 500 575 28,800 1,694 Climbing FlightAware ADS-B
Sun 07:10:12 PM 40.5580 -87.5460 159° South 499 574 29,900 1,765 Climbing FlightAware ADS-B
Sun 07:10:57 PM 40.4590 -87.4960 159° South 497 572 31,300 1,976 Climbing FlightAware ADS-B
Sun 07:11:37 PM 40.3720 -87.4520 159° South 487 560 32,700 1,765 Climbing FlightAware ADS-B
Sun 07:12:22 PM 40.2870 -87.4080 158° South 481 554 33,800 1,500 Climbing FlightAware ADS-B
Sun 07:12:57 PM 40.2140 -87.3710 159° South 477 549 34,700 1,271 Climbing FlightAware ADS-B
Sun 07:13:47 PM 40.1010 -87.3150 159° South 480 552 35,600 1,000 Climbing FlightAware ADS-B
Sun 07:14:27 PM 40.0200 -87.2750 159° South 481 554 36,200 975 Climbing FlightAware ADS-B
Sun 07:15:07 PM 39.9420 -87.2360 159° South 477 549 36,900 600 Climbing FlightAware ADS-B
Sun 07:15:47 PM 39.8570 -87.1940 159° South 477 549 37,000 71 Climbing FlightAware ADS-B
Sun 07:16:32 PM 39.7660 -87.1480 159° South 478 550 37,000  Level FlightAware ADS-B
Sun 07:17:27 PM 39.6560 -87.0940 159° South 479 551 37,000  Level FlightAware ADS-B
Sun 07:18:12 PM 39.5600 -87.0470 159° South 480 552 37,000  Level FlightAware ADS-B
Sun 07:18:52 PM 39.4740 -87.0040 159° South 479 551 37,000  Level FlightAware ADS-B
Sun 07:19:37 PM 39.3770 -86.9560 159° South 479 551 37,000  Level FlightAware ADS-B
Sun 07:20:07 PM 39.3170 -86.9260 159° South 480 552 37,000  Level FlightAware ADS-B
Sun 07:20:57 PM 39.2140 -86.8760 159° South 481 554 37,000  Level FlightAware ADS-B
Sun 07:21:42 PM 39.1190 -86.8200 155° Southeast 487 560 37,000  Level FlightAware ADS-B
Sun 07:22:22 PM 39.0430 -86.7680 152° Southeast 486 559 37,000  Level FlightAware ADS-B
Sun 07:23:07 PM 38.9520 -86.7070 152° Southeast 487 560 37,000  Level FlightAware ADS-B
Sun 07:23:47 PM 38.8720 -86.6530 152° Southeast 486 559 37,000  Level FlightAware ADS-B
Sun 07:24:27 PM 38.7970 -86.6020 152° Southeast 485 558 37,000  Level FlightAware ADS-B
Sun 07:25:12 PM 38.7010 -86.5380 153° Southeast 485 558 37,000  Level FlightAware ADS-B
Sun 07:25:52 PM 38.6280 -86.4900 153° Southeast 484 557 37,000  Level FlightAware ADS-B
Sun 07:26:37 PM 38.5380 -86.4290 152° Southeast 483 556 37,000  Level FlightAware ADS-B
Sun 07:27:12 PM 38.4690 -86.3830 152° Southeast 483 556 37,000  Level FlightAware ADS-B
Sun 07:27:57 PM 38.3810 -86.3250 153° Southeast 484 557 37,000  Level FlightAware ADS-B
Sun 07:28:42 PM 38.2890 -86.2640 153° Southeast 485 558 37,000  Level FlightAware ADS-B
Sun 07:29:22 PM 38.2050 -86.2080 152° Southeast 484 557 37,000  Level FlightAware ADS-B
Sun 07:30:02 PM 38.1300 -86.1590 153° Southeast 484 557 37,000  Level FlightAware ADS-B
Sun 07:30:47 PM 38.0370 -86.0980 153° Southeast 485 558 37,000  Level FlightAware ADS-B
Sun 07:31:22 PM 37.9740 -86.0560 152° Southeast 485 558 37,000  Level FlightAware ADS-B
Sun 07:32:07 PM 37.8770 -85.9930 153° Southeast 483 556 37,000  Level FlightAware ADS-B
Sun 07:32:37 PM 37.8170 -85.9530 152° Southeast 483 556 37,000  Level FlightAware ADS-B
Sun 07:33:22 PM 37.7300 -85.8970 153° Southeast 478 550 37,000  Level FlightAware ADS-B
Sun 07:33:48 PM 37.6738 -85.8602 153° Southeast 477 549 37,000  Level FlightAware ADS-B
Sun 07:34:19 PM 37.6145 -85.8214 153° Southeast 477 549 37,000  Level FlightAware ADS-B
Sun 07:34:49 PM 37.5549 -85.7826 153° Southeast 475 547 37,000  Level FlightAware ADS-B
Sun 07:35:20 PM 37.4944 -85.7436 153° Southeast 474 545 37,000  Level FlightAware ADS-B
Sun 07:35:51 PM 37.4347 -85.7053 153° Southeast 474 545 37,000  Level FlightAware ADS-B
Sun 07:36:10 PM 37.3969 -85.6838 156° South 468 539 37,000  Level FlightAware ADS-B
Sun 07:36:41 PM 37.3330 -85.6595 163° South 456 525 37,000  Level FlightAware ADS-B
Sun 07:37:20 PM 37.2539 -85.6323 165° South 456 525 37,000  Level FlightAware ADS-B
Sun 07:37:52 PM 37.1906 -85.6104 165° South 456 525 37,000  Level FlightAware ADS-B
Sun 07:38:22 PM 37.1293 -85.5892 165° South 455 524 37,000  Level FlightAware ADS-B
Sun 07:38:53 PM 37.0653 -85.5669 164° South 455 524 37,000  Level FlightAware ADS-B
Sun 07:39:25 PM 37.0011 -85.5448 165° South 455 524 37,000  Level FlightAware ADS-B
Sun 07:40:02 PM 36.9257 -85.5191 165° South 455 524 37,000  Level FlightAware ADS-B
Sun 07:40:33 PM 36.8632 -85.4979 165° South 455 524 37,000  Level FlightAware ADS-B
Sun 07:41:04 PM 36.7990 -85.4760 165° South 456 525 37,000  Level FlightAware ADS-B
Sun 07:41:37 PM 36.7329 -85.4534 165° South 456 525 37,000  Level FlightAware ADS-B
Sun 07:42:10 PM 36.6647 -85.4300 165° South 456 525 37,000  Level FlightAware ADS-B
Sun 07:42:41 PM 36.6013 -85.4085 165° South 457 526 37,000  Level FlightAware ADS-B
Sun 07:43:12 PM 36.5392 -85.3877 165° South 462 532 37,000  Level FlightAware ADS-B
Sun 07:43:45 PM 36.4695 -85.3641 165° South 466 536 37,000  Level FlightAware ADS-B
Sun 07:44:21 PM 36.3962 -85.3389 165° South 466 536 37,000  Level FlightAware ADS-B
Sun 07:44:51 PM 36.3330 -85.3174 165° South 465 535 37,000  Level FlightAware ADS-B
Sun 07:45:21 PM 36.2709 -85.2964 165° South 463 533 37,000  Level FlightAware ADS-B
Sun 07:45:52 PM 36.2079 -85.2753 165° South 461 531 37,000  Level FlightAware ADS-B
Sun 07:46:22 PM 36.1457 -85.2545 165° South 460 529 37,000  Level FlightAware ADS-B
Sun 07:47:08 PM 36.0519 -85.2230 165° South 459 528 37,000  Level FlightAware ADS-B
Sun 07:47:38 PM 35.9904 -85.2024 165° South 454 522 37,000  Level FlightAware ADS-B
Sun 07:48:08 PM 35.9297 -85.1820 165° South 451 519 37,000  Level FlightAware ADS-B
Sun 07:48:42 PM 35.8607 -85.1590 165° South 450 518 37,000  Level FlightAware ADS-B
Sun 07:49:14 PM 35.7966 -85.1376 165° South 449 517 37,000  Level FlightAware ADS-B
Sun 07:49:44 PM 35.7366 -85.1177 165° South 447 514 37,000  Level FlightAware ADS-B
Sun 07:50:15 PM 35.6757 -85.0976 165° South 447 514 37,000  Level FlightAware ADS-B
Sun 07:50:45 PM 35.6150 -85.0774 165° South 447 514 37,000  Level FlightAware ADS-B
Sun 07:51:15 PM 35.5545 -85.0573 165° South 447 514 37,000  Level FlightAware ADS-B
Sun 07:51:47 PM 35.4909 -85.0361 165° South 446 513 37,000  Level FlightAware ADS-B
Sun 07:52:17 PM 35.4312 -85.0163 165° South 445 512 37,000  Level FlightAware ADS-B
Sun 07:52:48 PM 35.3689 -84.9958 165° South 448 516 37,000  Level FlightAware ADS-B
Sun 07:53:20 PM 35.3050 -84.9749 165° South 450 518 37,000  Level FlightAware ADS-B
Sun 07:53:51 PM 35.2440 -84.9549 165° South 451 519 37,000  Level FlightAware ADS-B
Sun 07:54:21 PM 35.1827 -84.9348 165° South 451 519 37,000  Level FlightAware ADS-B
Sun 07:54:51 PM 35.1221 -84.9148 165° South 451 519 37,000  Level FlightAware ADS-B
Sun 07:55:21 PM 35.0609 -84.8948 165° South 449 517 37,000  Level FlightAware ADS-B
Sun 07:55:53 PM 34.9972 -84.8740 165° South 450 518 37,000 228 Level FlightAware ADS-B
Sun 07:58:25 PM 34.6911 -84.7747 165° South 450 518 37,700 321 Climbing FlightAware ADS-B
Sun 07:59:00 PM 34.6212 -84.7523 165° South 455 524 38,000 738 Climbing FlightAware ADS-B
Sun 07:59:30 PM 34.5593 -84.7321 165° South 451 519 38,500 968 Climbing FlightAware ADS-B
Sun 08:00:02 PM 34.4959 -84.7116 165° South 445 512 39,000 448 Climbing FlightAware ADS-B
Sun 08:00:37 PM 34.4350 -84.6920 165° South 433 498 39,000  Level FlightAware ADS-B
Sun 08:00:44 PM 34.4141 -84.6852 165° South 441 507 39,000  Level FlightAware ADS-B
Sun 08:01:17 PM 34.3488 -84.6643 165° South 438 504 39,000  Level FlightAware ADS-B
Sun 08:01:48 PM 34.2870 -84.6445 165° South 437 503 39,000  Level FlightAware ADS-B
Sun 08:02:19 PM 34.2280 -84.6256 165° South 437 503 39,000  Level FlightAware ADS-B
Sun 08:03:20 PM 34.1077 -84.5872 165° South 435 501 39,000  Level FlightAware ADS-B
Sun 08:04:07 PM 34.0250 -84.5610 165° South 432 497 39,000  Level FlightAware ADS-B
Sun 08:04:25 PM 33.9819 -84.5471 165° South 435 501 39,000  Level FlightAware ADS-B
Sun 08:04:56 PM 33.9228 -84.5282 165° South 432 497 39,000  Level FlightAware ADS-B
Sun 08:05:26 PM 33.8642 -84.5095 165° South 430 495 39,000  Level FlightAware ADS-B
Sun 08:05:57 PM 33.8063 -84.4911 165° South 428 493 39,000  Level FlightAware ADS-B
Sun 08:06:34 PM 33.7358 -84.4689 165° South 426 490 39,000  Level FlightAware ADS-B
Sun 08:07:27 PM 33.6337 -84.4367 165° South 426 490 39,000  Level FlightAware ADS-B
Sun 08:07:58 PM 33.5752 -84.4129 161° South 435 501 39,000  Level FlightAware ADS-B
Sun 08:08:30 PM 33.5137 -84.3871 161° South 436 502 39,000  Level FlightAware ADS-B
Sun 08:09:13 PM 33.4314 -84.3525 161° South 436 502 39,000  Level FlightAware ADS-B
Sun 08:09:52 PM 33.3610 -84.3230 161° South 435 501 39,000  Level FlightAware ADS-B
Sun 08:10:32 PM 33.2850 -84.2910 161° South 436 502 39,000  Level FlightAware ADS-B
Sun 08:10:39 PM 33.2682 -84.2845 162° South 435 501 39,000  Level FlightAware ADS-B
Sun 08:11:12 PM 33.2080 -84.2600 161° South 437 503 39,000  Level FlightAware ADS-B
Sun 08:11:57 PM 33.1220 -84.2240 161° South 438 504 39,000  Level FlightAware ADS-B
Sun 08:12:37 PM 33.0480 -84.1930 161° South 439 505 39,000  Level FlightAware ADS-B
Sun 08:13:17 PM 32.9690 -84.1600 161° South 440 506 39,000  Level FlightAware ADS-B
Sun 08:13:57 PM 32.9010 -84.1310 160° South 440 506 39,000  Level FlightAware ADS-B
Sun 08:14:37 PM 32.8220 -84.1000 162° South 441 507 39,000  Level FlightAware ADS-B
Sun 08:15:22 PM 32.7470 -84.0670 160° South 441 507 39,000  Level FlightAware ADS-B
Sun 08:16:02 PM 32.6820 -84.0390 160° South 441 507 39,000  Level FlightAware ADS-B
Sun 08:16:47 PM 32.5720 -83.9970 162° South 441 507 39,000  Level FlightAware ADS-B
Sun 08:17:27 PM 32.5000 -83.9680 161° South 429 494 39,000  Level FlightAware ADS-B
Sun 08:18:32 PM 32.3750 -83.9170 161° South 430 495 39,000  Level FlightAware ADS-B
Sun 08:19:12 PM 32.3010 -83.8860 161° South 430 495 39,000  Level FlightAware ADS-B
Sun 08:19:52 PM 32.2370 -83.8580 160° South 430 495 39,000  Level FlightAware ADS-B
Sun 08:20:32 PM 32.1740 -83.8310 160° South 430 495 39,000  Level FlightAware ADS-B
Sun 08:21:12 PM 32.1100 -83.8040 160° South 430 495 39,000  Level FlightAware ADS-B
Sun 08:22:02 PM 32.0310 -83.7700 160° South 430 495 39,000  Level FlightAware ADS-B
Sun 08:22:42 PM 31.9670 -83.7420 160° South 430 495 39,000  Level FlightAware ADS-B
Sun 08:23:22 PM 31.9040 -83.7150 160° South 430 495 39,000  Level FlightAware ADS-B
Sun 08:24:02 PM 31.8400 -83.6880 160° South 430 495 39,000  Level FlightAware ADS-B
Sun 08:24:42 PM 31.7770 -83.6610 160° South 430 495 39,000  Level FlightAware ADS-B
Sun 08:25:32 PM 31.6970 -83.6270 160° South 430 495 39,000  Level FlightAware ADS-B
Sun 08:26:12 PM 31.6340 -83.5990 159° South 430 495 39,000  Level FlightAware ADS-B
Sun 08:26:52 PM 31.5700 -83.5720 160° South 430 495 39,000  Level FlightAware ADS-B
Sun 08:27:32 PM 31.5060 -83.5450 160° South 430 495 39,000  Level FlightAware ADS-B
Sun 08:28:12 PM 31.4430 -83.5180 160° South 430 495 39,000  Level FlightAware ADS-B
Sun 08:29:16 PM 31.1214 -83.4144 160° South 445 512 39,000  Level Jacksonville Center
Sun 08:30:16 PM 31.0069 -83.3700 162° South 445 512 39,000  Level Jacksonville Center
Sun 08:31:16 PM 30.8922 -83.3236 161° South 445 512 39,000  Level Jacksonville Center
Sun 08:32:16 PM 30.7942 -83.2844 161° South 431 496 39,000  Level Jacksonville Center
Sun 08:33:16 PM 30.6794 -83.2283 157° South 431 496 39,000 -50 Level Jacksonville Center
Sun 08:34:16 PM 30.5647 -83.1700 156° South 437 503 38,900  Descending Jacksonville Center
Sun 08:35:16 PM 30.4500 -83.1119 156° South 443 510 39,000 50 Climbing Jacksonville Center
Sun 08:36:16 PM 30.3375 -83.0564 157° South 443 510 39,000  Level Jacksonville Center
Sun 08:42:17 PM 29.6340 -82.7100 157° South 39,000  Level FlightAware ADS-B
Sun 08:43:02 PM 29.5380 -82.6620 156° South 448 516 39,000  Level FlightAware ADS-B
Sun 08:43:37 PM 29.4670 -82.6280 157° South 447 514 39,000  Level FlightAware ADS-B
Sun 08:44:22 PM 29.3880 -82.5890 157° South 439 505 39,000  Level FlightAware ADS-B
Sun 08:45:17 PM 29.2790 -82.5360 157° South 447 514 39,000  Level FlightAware ADS-B
Sun 08:46:02 PM 29.1900 -82.4930 157° South 448 516 39,000  Level FlightAware ADS-B
Sun 08:46:42 PM 29.1150 -82.4580 158° South 439 505 39,000  Level FlightAware ADS-B
Sun 08:47:42 PM 29.0000 -82.4520 177° South 408 470 39,000  Level FlightAware ADS-B
Sun 08:48:22 PM 28.9250 -82.4570 183° South 410 472 39,000  Level FlightAware ADS-B
Sun 08:49:17 PM 28.8190 -82.4520 178° South 429 494 39,000  Level FlightAware ADS-B
Sun 08:50:02 PM 28.7270 -82.4350 171° South 431 496 39,000  Level FlightAware ADS-B
Sun 08:50:42 PM 28.6500 -82.4200 170° South 433 498 39,000  Level FlightAware ADS-B
Sun 08:51:22 PM 28.5690 -82.4050 171° South 434 499 39,000  Level FlightAware ADS-B
Sun 08:52:07 PM 28.4810 -82.3890 171° South 434 499 39,000  Level FlightAware ADS-B
Sun 08:52:47 PM 28.4030 -82.3740 170° South 433 498 39,000  Level FlightAware ADS-B
Sun 08:53:27 PM 28.3230 -82.3590 171° South 433 498 39,000  Level FlightAware ADS-B
Sun 08:54:12 PM 28.2360 -82.3430 171° South 433 498 39,000  Level FlightAware ADS-B
Sun 08:54:52 PM 28.1530 -82.3280 171° South 432 497 39,000  Level FlightAware ADS-B
Sun 08:55:37 PM 28.0670 -82.3120 171° South 432 497 39,000  Level FlightAware ADS-B
Sun 08:56:17 PM 27.9870 -82.2970 171° South 431 496 39,000 -225 Level FlightAware ADS-B
Sun 08:56:57 PM 27.9080 -82.2830 171° South 433 498 38,700 -776 Descending FlightAware ADS-B
Sun 08:57:42 PM 27.8190 -82.2670 171° South 438 504 37,900 -988 Descending FlightAware ADS-B
Sun 08:58:22 PM 27.7380 -82.2520 171° South 444 511 37,300 -918 Descending FlightAware ADS-B
Sun 08:59:07 PM 27.6460 -82.2350 171° South 448 516 36,600 -918 Descending FlightAware ADS-B
Sun 08:59:47 PM 27.5620 -82.2200 171° South 449 517 36,000 -988 Descending FlightAware ADS-B
Sun 09:00:32 PM 27.4670 -82.2020 170° South 453 521 35,200 -918 Descending FlightAware ADS-B
Sun 09:01:12 PM 27.3920 -82.1890 171° South 458 527 34,700 -825 Descending FlightAware ADS-B
Sun 09:01:52 PM 27.3090 -82.1740 171° South 455 524 34,100 -988 Descending FlightAware ADS-B
Sun 09:02:37 PM 27.2060 -82.1540 170° South 464 534 33,300 -1,059 Descending FlightAware ADS-B
Sun 09:03:17 PM 27.1270 -82.1090 153° Southeast 487 560 32,600 -975 Descending FlightAware ADS-B
Sun 09:03:57 PM 27.0580 -82.0460 141° Southeast 487 560 32,000 -1,835 Descending FlightAware ADS-B
Sun 09:04:42 PM 26.9860 -81.9670 136° Southeast 488 562 30,000 -2,541 Descending FlightAware ADS-B
Sun 09:05:22 PM 26.9250 -81.8950 134° Southeast 476 548 28,400 -2,400 Descending FlightAware ADS-B
Sun 09:06:02 PM 26.8640 -81.8250 134° Southeast 464 534 26,800 -2,259 Descending FlightAware ADS-B
Sun 09:06:47 PM 26.8010 -81.7530 134° Southeast 444 511 25,200 -2,682 Descending FlightAware ADS-B
Sun 09:07:27 PM 26.7440 -81.6880 134° Southeast 447 514 23,000 -2,965 Descending FlightAware ADS-B
Sun 09:08:12 PM 26.6790 -81.6150 135° Southeast 448 516 21,000 -2,025 Descending FlightAware ADS-B
Sun 09:08:47 PM 26.6250 -81.5540 135° Southeast 418 481 20,300 -1,412 Descending FlightAware ADS-B
Sun 09:09:37 PM 26.5590 -81.4790 135° Southeast 395 455 19,000 -1,725 Descending FlightAware ADS-B
Sun 09:10:07 PM 26.5230 -81.4380 134° Southeast 386 444 18,000 -1,050 Descending FlightAware ADS-B
Sun 09:10:57 PM 26.4690 -81.3780 135° Southeast 389 448 17,600 -267 Descending FlightAware ADS-B
Sun 09:11:37 PM 26.4250 -81.3290 135° Southeast 389 448 17,600  Level FlightAware ADS-B
Sun 09:12:17 PM 26.3820 -81.2810 135° Southeast 389 448 17,600 -3,800 Level FlightAware ADS-B
Sun 09:13:07 PM 26.3030 -81.1910 134° Southeast 368 423 11,900 -4,667 Descending FlightAware ADS-B
Sun 09:13:47 PM 26.2560 -81.1380 135° Southeast 359 413 10,600 -1,341 Descending FlightAware ADS-B
Sun 09:14:32 PM 26.2080 -81.0840 135° Southeast 324 373 10,000 -686 Descending FlightAware ADS-B
Sun 09:14:57 PM 26.1830 -81.0560 135° Southeast 301 346 9,800 -982 Descending FlightAware ADS-B
Sun 09:15:27 PM 26.1540 -81.0230 134° Southeast 302 348 9,100 -1,527 Descending FlightAware ADS-B
Sun 09:15:52 PM 26.1280 -80.9940 135° Southeast 299 344 8,400 -1,200 Descending FlightAware ADS-B
Sun 09:16:22 PM 26.1080 -80.9570 121° Southeast 292 336 8,000 -545 Descending FlightAware ADS-B
Sun 09:16:47 PM 26.1060 -80.9180 93° East 291 335 7,900 -545 Descending FlightAware ADS-B
Sun 09:17:17 PM 26.1040 -80.8730 93° East 290 334 7,500 -800 Descending FlightAware ADS-B
Sun 09:17:47 PM 26.1020 -80.8300 93° East 289 333 7,100 -982 Descending FlightAware ADS-B
Sun 09:18:12 PM 26.1000 -80.7920 93° East 285 328 6,600 -982 Descending FlightAware ADS-B
Sun 09:18:42 PM 26.0990 -80.7520 92° East 284 327 6,200 -873 Descending FlightAware ADS-B
Sun 09:19:07 PM 26.0970 -80.7130 93° East 283 326 5,800 -873 Descending FlightAware ADS-B
Sun 09:19:37 PM 26.0950 -80.6680 93° East 282 325 5,400 -667 Descending FlightAware ADS-B
Sun 09:19:52 PM 26.0940 -80.6450 93° East 282 325 5,300 -514 Descending FlightAware ADS-B
Sun 09:20:12 PM 26.0930 -80.6160 92° East 284 327 5,100 -545 Descending FlightAware ADS-B
Sun 09:20:47 PM 26.0910 -80.5680 93° East 274 315 4,800 -600 Descending FlightAware ADS-B
Sun 09:21:02 PM 26.0900 -80.5440 93° East 266 306 4,600 -900 Descending FlightAware ADS-B
Sun 09:21:27 PM 26.0880 -80.5110 94° East 261 300 4,200 -1,091 Descending FlightAware ADS-B
Sun 09:21:57 PM 26.0860 -80.4710 93° East 261 300 3,600 -1,091 Descending FlightAware ADS-B
Sun 09:22:22 PM 26.0850 -80.4390 92° East 255 293 3,200 -982 Descending FlightAware ADS-B
Sun 09:22:52 PM 26.0830 -80.3990 93° East 249 287 2,700 -873 Descending FlightAware ADS-B
Sun 09:23:17 PM 26.0820 -80.3670 92° East 242 278 2,400 -545 Descending FlightAware ADS-B
Sun 09:23:47 PM 26.0800 -80.3320 94° East 226 260 2,200 -500 Descending FlightAware ADS-B
Sun 09:24:17 PM 26.0780 -80.2990 94° East 207 238 1,900 -545 Descending FlightAware ADS-B
Sun 09:24:42 PM 26.0770 -80.2730 92° East 196 226 1,700 -738 Descending FlightAware ADS-B
Sun 09:25:22 PM 26.0770 -80.2360 90° East 165 190 1,100 -857 Descending FlightAware ADS-B
Sun 09:25:52 PM 26.0770 -80.2120 90° East 153 176 700 -764 Descending FlightAware ADS-B
Sun 09:26:17 PM 26.0770 -80.1950 90° East 150 173 400 -429 Descending FlightAware ADS-B
Sun 09:27:02 PM 26.0770 -80.1610 90° East 150 173 200 -267 Descending FlightAware ADS-B

Login

Don't have an account? Register now (free) for customized features, flight alerts, and more!